Terminal Aerodrome Forecast
Issued by NWS New Orleans/Baton Rouge, LA

Current Version | Previous Version | Text Only | Print | Product List | Glossary On
Versions: 1 2 3 4 5 6 7 8 9 10 11 12 13 14 15 16 17 18
029
FTUS44 KLIX 262324
TAFBTR
TAF
KBTR 262324Z 2700/2724 11012KT P6SM SKC
     FM270300 13007KT P6SM OVC110
     FM270600 13008KT P6SM BKN050
     FM270900 14008KT P6SM VCSH OVC035
      TEMPO 2709/2713 4SM TSRA OVC015CB
     FM271300 16007KT 5SM -SHRA VCTS OVC020CB
     FM271800 19009KT P6SM -SHRA VCTS OVC040CB=

USA.gov is the U.S. government's official web portal to all federal, state and local government web resources and services.